Time;durP1;ratioP1;P1;durP2;ratioP2;P2;SDS_P1;SDS_P2;PMS_P1;PMS_P2;Temp;Humidity;BMP_temperature;BMP_pressure;BME280_temperature;BME280_humidity;BME280_pressure;Samples;Min_cycle;Max_cycle;Signal;HPM_P1;HPM_P2
2022/08/12 00:43:59;;;;;;;5.08;4.15;;;;;;;19.33;71.74;101285.59;1732315;82;25676;-53
2022/08/12 00:46:30;;;;;;;9.00;4.35;;;;;;;19.37;71.33;101282.81;1735894;82;25780;-54
2022/08/12 00:49:00;;;;;;;6.03;4.55;;;;;;;19.37;71.47;101287.77;1731568;82;25784;-54
2022/08/12 00:54:16;;;;;;;6.50;4.22;;;;;;;19.28;71.43;101279.31;1734876;82;25874;-54
2022/08/12 00:56:44;;;;;;;7.60;4.67;;;;;;;19.26;71.77;101275.91;1714095;82;25799;-54
2022/08/12 00:59:11;;;;;;;7.05;4.83;;;;;;;19.24;71.71;101278.83;1734851;82;25945;-55
2022/08/12 01:01:43;;;;;;;7.72;4.42;;;;;;;19.26;71.61;101275.08;1732053;82;25724;-54
2022/08/12 01:12:37;;;;;;;6.53;4.30;;;;;;;19.12;72.03;101268.52;1788982;78;25902;-55
2022/08/12 01:15:06;;;;;;;7.10;4.70;;;;;;;19.07;72.38;101258.99;1766903;80;25495;-54
2022/08/12 01:17:33;;;;;;;6.80;4.72;;;;;;;19.05;72.31;101258.31;1759781;81;28323;-53
2022/08/12 01:20:05;;;;;;;12.50;4.33;;;;;;;19.03;72.28;101260.41;1760965;81;25703;-55
2022/08/12 01:23:16;;;;;;;6.15;4.83;;;;;;;19.06;71.89;101263.27;1760901;81;25870;-54
2022/08/12 01:25:46;;;;;;;4.80;4.30;;;;;;;19.05;72.35;101252.86;1759163;80;25836;-54
2022/08/12 01:28:16;;;;;;;8.00;4.33;;;;;;;19.07;71.94;101254.91;1759280;81;26073;-53
2022/08/12 01:30:44;;;;;;;7.92;4.67;;;;;;;19.07;72.13;101255.43;1758784;80;27453;-54
2022/08/12 01:33:15;;;;;;;9.98;5.03;;;;;;;19.12;72.15;101258.98;1758786;81;25811;-54
2022/08/12 01:35:48;;;;;;;13.55;4.70;;;;;;;19.10;72.18;101255.58;1758853;81;25675;-52
2022/08/12 01:38:19;;;;;;;7.33;4.50;;;;;;;19.14;71.75;101240.04;1759559;80;25741;-57
2022/08/12 01:40:47;;;;;;;5.90;4.53;;;;;;;19.18;72.07;101239.16;1758817;81;25814;-55
2022/08/12 01:43:23;;;;;;;5.12;4.28;;;;;;;19.21;71.82;101233.35;1758393;81;27499;-55
2022/08/12 01:46:18;;;;;;;6.03;4.40;;;;;;;19.23;71.60;101220.35;1759564;80;25735;-55
2022/08/12 01:49:11;;;;;;;5.08;4.47;;;;;;;19.18;72.05;101224.16;1762218;81;25800;-53
2022/08/12 01:51:42;;;;;;;5.80;4.77;;;;;;;19.17;71.79;101212.41;1734215;81;25804;-53
2022/08/12 01:54:18;;;;;;;8.23;4.60;;;;;;;19.09;72.48;101209.75;1762278;81;25826;-52
2022/08/12 01:57:16;;;;;;;5.78;4.78;;;;;;;18.96;72.49;101206.77;1761798;81;27628;-54
2022/08/12 01:59:58;;;;;;;9.78;3.98;;;;;;;18.89;72.72;101205.23;1763266;80;25784;-53
2022/08/12 02:02:38;;;;;;;8.78;4.50;;;;;;;18.86;72.43;101206.45;1760946;81;25725;-54
2022/08/12 02:11:33;;;;;;;5.50;4.12;;;;;;;18.85;72.40;101202.55;1757634;81;29526;-54
2022/08/12 02:14:22;;;;;;;9.05;4.20;;;;;;;18.84;72.52;101205.78;1775692;78;25737;-54
2022/08/12 02:17:06;;;;;;;8.80;4.08;;;;;;;18.85;72.52;101210.20;1795652;78;25474;-55
2022/08/12 02:19:48;;;;;;;7.35;4.17;;;;;;;18.83;72.59;101200.52;1800133;78;25812;-55
2022/08/12 02:22:29;;;;;;;12.98;5.00;;;;;;;18.78;72.62;101205.14;1799972;79;25782;-53
2022/08/12 02:25:07;;;;;;;8.08;3.95;;;;;;;18.76;72.68;101209.42;1809234;79;27326;-54
2022/08/12 02:27:44;;;;;;;4.20;3.52;;;;;;;18.74;72.49;101210.61;1772952;80;25740;-54
2022/08/12 02:30:22;;;;;;;5.85;4.12;;;;;;;18.74;72.44;101211.97;1773331;80;25723;-54
2022/08/12 02:32:52;;;;;;;7.28;3.80;;;;;;;18.78;72.24;101212.80;1773112;80;25717;-53
2022/08/12 02:35:25;;;;;;;7.55;4.10;;;;;;;18.84;72.31;101207.67;1773429;80;26150;-55
2022/08/12 02:37:58;;;;;;;12.40;4.03;;;;;;;18.91;72.28;101215.45;1773276;80;27497;-55
2022/08/12 02:40:28;;;;;;;9.25;3.90;;;;;;;18.95;72.15;101207.79;1772547;80;25715;-55
2022/08/12 02:43:11;;;;;;;7.00;4.10;;;;;;;18.90;72.05;101206.44;1772990;80;25701;-55
2022/08/12 02:46:00;;;;;;;7.23;4.73;;;;;;;18.87;72.31;101210.05;1778028;79;25771;-55
2022/08/12 02:48:47;;;;;;;8.23;4.20;;;;;;;18.80;72.53;101205.82;1773011;80;26086;-55
2022/08/12 02:51:19;;;;;;;4.92;3.77;;;;;;;18.83;72.42;101201.88;1770898;80;27425;-55
2022/08/12 02:53:49;;;;;;;9.60;4.28;;;;;;;18.85;72.52;101199.30;1772452;80;25507;-54
2022/08/12 02:56:17;;;;;;;6.17;3.98;;;;;;;18.88;72.17;101196.22;1811889;78;25672;-53
2022/08/12 02:58:45;;;;;;;6.72;4.17;;;;;;;18.89;72.34;101197.92;1772494;80;25778;-53
2022/08/12 03:01:13;;;;;;;8.93;4.95;;;;;;;18.90;72.28;101196.03;1811375;79;25777;-56
2022/08/12 03:03:41;;;;;;;7.22;4.10;;;;;;;18.94;72.28;101200.14;1772967;80;27487;-55
2022/08/12 03:06:15;;;;;;;8.90;4.55;;;;;;;19.01;72.13;101202.97;1812038;79;25731;-55
2022/08/12 03:08:45;;;;;;;10.50;5.45;;;;;;;19.08;72.09;101214.34;1772820;79;25722;-54
2022/08/12 03:11:39;;;;;;;12.70;6.00;;;;;;;19.11;71.88;101213.13;1811862;78;26555;-53
2022/08/12 03:14:10;;;;;;;6.90;4.53;;;;;;;19.18;71.70;101211.88;1771606;79;25507;-53
2022/08/12 03:16:38;;;;;;;5.83;3.92;;;;;;;19.23;71.47;101216.27;1768323;80;27539;-54
2022/08/12 03:19:08;;;;;;;4.90;4.08;;;;;;;19.29;71.55;101209.23;1768152;80;25711;-55
2022/08/12 03:21:36;;;;;;;9.78;4.45;;;;;;;19.26;71.43;101217.80;1768169;81;25656;-54
2022/08/12 03:24:07;;;;;;;8.43;4.80;;;;;;;19.20;71.38;101218.84;1772035;80;26444;-54
2022/08/12 03:26:36;;;;;;;11.83;5.35;;;;;;;19.22;71.35;101215.42;1768113;81;25948;-55
2022/08/12 03:29:06;;;;;;;6.53;3.70;;;;;;;19.21;71.33;101215.09;1767883;80;27464;-54
2022/08/12 03:31:33;;;;;;;6.10;3.95;;;;;;;19.27;71.35;101213.52;1767868;81;25826;-54
2022/08/12 03:34:08;;;;;;;6.85;3.98;;;;;;;19.31;71.01;101219.45;1767842;81;25788;-55
2022/08/12 03:36:38;;;;;;;4.10;3.70;;;;;;;19.30;71.04;101221.84;1768048;80;25711;-55
2022/08/12 03:42:13;;;;;;;8.13;4.08;;;;;;;19.27;70.91;101220.86;1741203;81;28173;-55
2022/08/12 04:02:04;;;;;;;7.87;3.85;;;;;;;19.29;70.89;101221.01;1767399;81;25783;-54
2022/08/12 04:04:34;;;;;;;7.20;3.83;;;;;;;19.37;70.87;101231.85;1767894;80;25900;-54
2022/08/12 04:07:08;;;;;;;6.47;3.75;;;;;;;19.43;70.90;101228.04;1767718;81;25867;-54
2022/08/12 04:09:40;;;;;;;;;;;;;;;19.44;70.77;101225.65;1751465;80;27585;-54
2022/08/12 04:14:56;;;;;;;4.53;3.70;;;;;;;19.52;70.61;101226.44;1796853;77;25683;-54
2022/08/12 04:17:26;;;;;;;6.45;3.75;;;;;;;19.58;70.40;101211.22;1799840;79;25770;-53
2022/08/12 04:19:58;;;;;;;5.03;3.95;;;;;;;19.63;70.36;101212.02;1800366;79;25931;-52
2022/08/12 04:22:28;;;;;;;5.75;3.85;;;;;;;19.61;70.17;101212.19;1799853;79;27507;-54
2022/08/12 04:25:01;;;;;;;5.72;3.77;;;;;;;19.61;70.15;101216.81;1761346;80;25751;-54
2022/08/12 04:27:30;;;;;;;7.42;3.83;;;;;;;19.60;70.16;101222.77;1777975;79;25749;-54
2022/08/12 04:29:57;;;;;;;6.22;3.90;;;;;;;19.60;70.16;101221.41;1778321;80;25713;-52
2022/08/12 04:32:25;;;;;;;9.10;3.72;;;;;;;19.60;70.12;101221.41;1778050;80;25783;-54
2022/08/12 04:34:52;;;;;;;6.35;3.95;;;;;;;19.63;70.21;101225.14;1778020;79;27532;-53
2022/08/12 04:37:19;;;;;;;9.78;4.50;;;;;;;19.64;70.14;101213.19;1777852;80;27266;-54
2022/08/12 04:39:48;;;;;;;10.53;4.33;;;;;;;19.65;70.19;101207.20;1778116;80;25614;-54
2022/08/12 04:42:15;;;;;;;6.33;4.08;;;;;;;19.59;70.16;101207.42;1778050;80;25763;-52
2022/08/12 04:44:43;;;;;;;9.13;4.35;;;;;;;19.54;70.42;101210.70;1778000;80;25704;-54
2022/08/12 04:47:13;;;;;;;5.95;4.15;;;;;;;19.44;70.90;101212.01;1803998;79;27863;-54
2022/08/12 04:49:43;;;;;;;10.98;4.60;;;;;;;19.44;71.00;101215.60;1809571;79;25891;-54
2022/08/12 04:52:13;;;;;;;8.13;4.22;;;;;;;19.45;71.01;101221.39;1809913;79;25697;-55
2022/08/12 04:54:42;;;;;;;6.30;4.28;;;;;;;19.44;70.98;101217.47;1787478;79;25772;-54
2022/08/12 04:57:09;;;;;;;6.15;4.28;;;;;;;19.47;70.97;101219.84;1809911;79;25722;-55
2022/08/12 04:59:36;;;;;;;8.98;4.78;;;;;;;19.49;70.90;101217.78;1809837;79;27082;-53
2022/08/12 05:02:04;;;;;;;10.68;5.22;;;;;;;19.54;71.01;101216.70;1809825;79;25714;-54
2022/08/12 05:04:32;;;;;;;9.25;4.50;;;;;;;19.55;70.86;101219.76;1809947;79;25778;-55
2022/08/12 05:06:59;;;;;;;16.17;5.75;;;;;;;19.60;70.99;101224.13;1809893;79;25779;-55
2022/08/12 05:09:26;;;;;;;10.65;4.78;;;;;;;19.63;70.80;101216.95;1800803;79;25706;-54
2022/08/12 05:11:55;;;;;;;9.15;4.65;;;;;;;19.68;70.68;101216.39;1800041;79;27525;-55
2022/08/12 05:14:22;;;;;;;9.65;4.28;;;;;;;19.73;70.71;101204.92;1802519;78;25766;-53
2022/08/12 05:16:50;;;;;;;6.12;3.75;;;;;;;19.77;70.69;101207.59;1814561;79;25742;-51
2022/08/12 05:19:20;;;;;;;10.48;4.15;;;;;;;19.78;70.62;101198.37;1804260;78;25804;-55
2022/08/12 05:21:46;;;;;;;8.00;4.28;;;;;;;19.76;70.94;101201.30;1800306;78;25768;-55
2022/08/12 05:24:13;;;;;;;8.45;4.20;;;;;;;19.75;70.93;101198.23;1805839;79;28163;-54
2022/08/12 05:26:40;;;;;;;11.97;4.40;;;;;;;19.69;71.18;101193.53;1773524;80;25761;-54
2022/08/12 05:29:13;;;;;;;12.03;4.37;;;;;;;19.60;71.27;101197.38;1773625;80;25758;-53
2022/08/12 05:31:37;;;;;;;6.55;3.92;;;;;;;19.62;71.68;101199.41;1772503;80;26078;-53
2022/08/12 05:34:04;;;;;;;7.00;4.00;;;;;;;19.62;71.43;101195.31;1773400;80;26071;-56
2022/08/12 05:36:31;;;;;;;10.60;5.20;;;;;;;19.70;71.29;101200.69;1773570;80;27591;-55
2022/08/12 05:38:59;;;;;;;8.10;4.65;;;;;;;19.80;71.12;101203.13;1772915;80;25767;-54
2022/08/12 05:41:34;;;;;;;13.13;7.55;;;;;;;19.90;71.01;101211.93;1772865;80;25532;-53
2022/08/12 05:44:16;;;;;;;10.78;6.55;;;;;;;19.95;70.80;101216.30;1772918;80;26492;-54
2022/08/12 05:46:40;;;;;;;17.25;4.83;;;;;;;20.01;70.77;101215.57;1770623;80;26369;-54
2022/08/12 05:49:07;;;;;;;16.48;4.60;;;;;;;20.07;70.62;101213.11;1771257;81;27399;-55
2022/08/12 05:51:37;;;;;;;11.60;4.10;;;;;;;20.06;70.41;101216.37;1771073;81;25751;-55
2022/08/12 05:54:04;;;;;;;6.92;3.75;;;;;;;20.05;70.51;101212.44;1771052;81;25727;-54
2022/08/12 05:56:34;;;;;;;10.20;5.83;;;;;;;19.94;70.83;101211.91;1771165;81;25813;-54
2022/08/12 05:59:06;;;;;;;7.78;4.95;;;;;;;19.84;71.18;101208.03;1771019;80;25722;-54
2022/08/12 06:01:34;;;;;;;10.68;7.12;;;;;;;19.80;71.59;101217.65;1771491;81;27435;-55
2022/08/12 06:04:01;;;;;;;12.68;5.85;;;;;;;19.61;72.33;101217.64;1771012;81;25977;-54
2022/08/12 06:06:28;;;;;;;10.03;5.25;;;;;;;19.52;72.89;101217.39;1771318;80;25652;-54
2022/08/12 06:08:55;;;;;;;11.33;5.33;;;;;;;19.45;72.90;101219.16;1764350;79;25834;-55
2022/08/12 06:11:24;;;;;;;13.28;5.90;;;;;;;19.37;74.08;101220.94;1762040;81;25748;-53
2022/08/12 06:13:54;;;;;;;7.45;4.83;;;;;;;19.33;73.95;101218.23;1764835;80;27458;-54
2022/08/12 06:16:22;;;;;;;9.65;4.97;;;;;;;19.27;74.74;101217.61;1768798;80;25783;-53
2022/08/12 06:18:49;;;;;;;11.12;5.70;;;;;;;19.26;74.73;101210.98;1767964;80;25790;-53
2022/08/12 06:21:22;;;;;;;9.68;5.87;;;;;;;19.30;74.76;101208.20;1767666;81;25799;-54
2022/08/12 06:23:50;;;;;;;6.73;4.93;;;;;;;19.37;74.99;101210.52;1768173;79;26436;-54
2022/08/12 06:26:19;;;;;;;11.38;5.42;;;;;;;19.50;74.74;101216.72;1758533;81;27500;-53
2022/08/12 06:28:49;;;;;;;7.55;5.50;;;;;;;19.62;74.69;101218.52;1751274;81;25776;-53
2022/08/12 06:31:20;;;;;;;7.17;5.50;;;;;;;19.75;74.67;101218.70;1751047;81;25705;-53
2022/08/12 06:33:49;;;;;;;19.20;5.05;;;;;;;19.88;74.35;101217.26;1750977;80;26943;-54
2022/08/12 06:36:18;;;;;;;10.60;5.10;;;;;;;20.11;74.17;101215.81;1750972;81;25792;-54
2022/08/12 06:38:49;;;;;;;9.45;5.00;;;;;;;20.28;73.64;101217.30;1751068;80;27052;-53
2022/08/12 06:44:05;;;;;;;7.83;4.83;;;;;;;20.67;72.65;101211.66;1750845;80;25713;-54
2022/08/12 06:46:33;;;;;;;17.95;5.40;;;;;;;20.94;72.37;101209.58;1743739;81;25804;-52
2022/08/12 06:49:00;;;;;;;15.53;7.20;;;;;;;21.13;71.22;101209.14;1734061;82;26110;-53
2022/08/12 06:51:30;;;;;;;9.98;5.87;;;;;;;21.19;70.65;101208.34;1726836;80;27476;-53
2022/08/12 06:54:00;;;;;;;6.67;4.60;;;;;;;21.34;70.50;101209.11;1767870;81;25790;-53
2022/08/12 06:56:28;;;;;;;15.68;5.17;;;;;;;21.45;70.33;101210.99;1768054;80;25719;-53
2022/08/12 06:58:56;;;;;;;9.55;5.05;;;;;;;21.63;70.02;101208.64;1767886;81;25707;-54
2022/08/12 07:01:24;;;;;;;16.75;4.28;;;;;;;21.89;69.51;101206.63;1767808;79;25758;-52
2022/08/12 07:03:52;;;;;;;9.30;4.95;;;;;;;22.11;69.31;101207.06;1767770;80;27659;-53
2022/08/12 07:06:18;;;;;;;9.85;4.70;;;;;;;22.28;68.61;101209.78;1767466;79;25675;-54
2022/08/12 07:08:45;;;;;;;6.15;4.28;;;;;;;22.42;68.06;101209.86;1777877;80;25712;-53
2022/08/12 07:11:14;;;;;;;9.78;5.53;;;;;;;22.49;67.85;101213.50;1783554;79;25736;-54
2022/08/12 07:13:49;;;;;;;14.98;5.45;;;;;;;22.57;67.31;101209.21;1783428;79;25844;-54
2022/08/12 07:16:19;;;;;;;9.18;5.65;;;;;;;22.55;67.09;101200.88;1778152;78;27481;-53
2022/08/12 07:18:52;;;;;;;9.78;5.30;;;;;;;22.58;66.84;101203.19;1825566;78;25794;-55
2022/08/12 07:21:19;;;;;;;12.20;5.28;;;;;;;22.57;66.91;101211.09;1826069;77;25794;-54
2022/08/12 07:23:46;;;;;;;17.98;5.45;;;;;;;22.61;67.29;101204.16;1822823;77;25835;-55
2022/08/12 07:26:15;;;;;;;13.32;5.47;;;;;;;22.81;67.36;101206.44;1815825;79;25719;-54
2022/08/12 07:28:44;;;;;;;11.43;5.28;;;;;;;22.86;66.62;101202.21;1813776;79;46434;-53
2022/08/12 07:31:11;;;;;;;9.93;5.15;;;;;;;22.91;66.27;101206.53;1804717;79;25480;-54
2022/08/12 07:33:40;;;;;;;10.35;5.20;;;;;;;22.89;65.86;101203.18;1764142;80;25443;-54
2022/08/12 07:36:12;;;;;;;9.05;5.40;;;;;;;22.78;65.69;101205.47;1758034;80;25790;-54
2022/08/12 07:38:45;;;;;;;10.70;5.30;;;;;;;22.70;66.07;101205.66;1769074;80;25824;-53
2022/08/12 07:41:21;;;;;;;;;;;;;;;22.73;66.21;101209.88;1769212;80;27508;-54
2022/08/12 07:43:55;;;;;;;8.70;4.95;;;;;;;22.65;66.34;101215.02;1736169;82;25727;-54
2022/08/12 07:46:30;;;;;;;10.55;4.90;;;;;;;22.59;66.73;101217.22;1755256;81;25710;-55
2022/08/12 07:49:04;;;;;;;8.48;5.42;;;;;;;22.60;67.05;101213.43;1761332;81;26655;-54
2022/08/12 07:51:33;;;;;;;11.50;6.12;;;;;;;22.75;66.75;101223.70;1775729;80;25712;-53
2022/08/12 07:54:01;;;;;;;10.43;5.42;;;;;;;22.81;66.32;101217.41;1762731;80;27675;-54
2022/08/12 07:56:30;;;;;;;10.45;5.65;;;;;;;22.87;66.41;101212.97;1756258;81;25811;-54
2022/08/12 07:58:57;;;;;;;11.18;5.67;;;;;;;22.94;66.07;101217.97;1767701;81;25705;-53
2022/08/12 08:01:25;;;;;;;11.90;6.00;;;;;;;23.11;66.15;101221.14;1767858;79;25761;-53
2022/08/12 08:06:45;;;;;;;10.13;5.30;;;;;;;22.92;64.90;101226.06;1767649;80;27464;-54
2022/08/12 08:09:13;;;;;;;9.18;5.25;;;;;;;22.80;65.32;101231.31;1755406;81;25689;-54
2022/08/12 08:14:30;;;;;;;13.58;5.60;;;;;;;22.97;65.34;101222.19;1804917;79;25810;-55
2022/08/12 08:16:59;;;;;;;11.97;5.75;;;;;;;23.32;64.98;101223.94;1768846;80;25692;-55
2022/08/12 08:19:28;;;;;;;8.33;6.15;;;;;;;23.55;64.43;101213.40;1807245;78;27512;-55
2022/08/12 08:21:57;;;;;;;9.35;6.17;;;;;;;23.77;63.23;101213.15;1767584;81;25633;-55
2022/08/12 08:24:26;;;;;;;9.73;6.33;;;;;;;23.90;62.72;101220.01;1753053;80;25799;-54
2022/08/12 08:26:57;;;;;;;8.98;6.15;;;;;;;24.09;60.97;101211.97;1750232;80;25948;-54
2022/08/12 08:29:25;;;;;;;9.95;6.35;;;;;;;24.12;61.49;101207.94;1751026;81;25788;-55
2022/08/12 08:32:00;;;;;;;10.63;5.78;;;;;;;24.26;60.87;101205.99;1806633;78;27691;-55
2022/08/12 08:34:25;;;;;;;8.30;6.10;;;;;;;24.34;60.49;101205.75;1806572;78;26166;-54
2022/08/12 08:36:52;;;;;;;11.25;6.25;;;;;;;24.33;60.26;101217.80;1806158;78;25706;-56
2022/08/12 08:39:26;;;;;;;12.07;6.10;;;;;;;24.37;60.59;101215.77;1806064;78;26745;-55
2022/08/12 08:44:38;;;;;;;9.08;5.85;;;;;;;24.78;59.55;101212.87;1806410;79;27468;-53
2022/08/12 08:47:09;;;;;;;10.85;5.75;;;;;;;24.85;58.72;101214.51;1797585;79;26391;-53
2022/08/12 08:49:37;;;;;;;9.55;5.60;;;;;;;24.95;57.93;101207.67;1794564;79;25748;-55
2022/08/12 08:52:07;;;;;;;9.73;5.17;;;;;;;24.88;57.84;101214.59;1794882;78;26420;-55
2022/08/12 08:54:36;;;;;;;11.22;5.10;;;;;;;25.04;58.02;101222.86;1795369;78;25797;-55
2022/08/12 08:57:07;;;;;;;7.53;5.90;;;;;;;25.23;57.66;101222.95;1795365;79;28109;-55
2022/08/12 08:59:34;;;;;;;15.88;6.45;;;;;;;25.26;56.48;101221.13;1795157;78;25704;-54
2022/08/12 09:02:01;;;;;;;8.70;5.83;;;;;;;25.15;56.76;101222.67;1795010;79;25688;-54
2022/08/12 09:04:28;;;;;;;12.88;5.62;;;;;;;25.29;56.22;101221.53;1795037;78;25941;-54
2022/08/12 09:06:58;;;;;;;6.58;5.87;;;;;;;25.44;56.11;101223.98;1795089;78;26097;-54
2022/08/12 09:09:26;;;;;;;8.35;5.42;;;;;;;25.61;55.80;101224.25;1794916;77;27561;-53
2022/08/12 09:14:42;;;;;;;10.35;6.15;;;;;;;25.98;55.56;101215.73;1794981;77;25775;-54
2022/08/12 09:17:09;;;;;;;12.58;8.38;;;;;;;26.21;54.74;101215.94;1802997;79;25932;-53
2022/08/12 09:19:36;;;;;;;12.60;6.37;;;;;;;26.23;54.01;101206.05;1800218;78;26003;-55
2022/08/12 09:22:06;;;;;;;9.20;5.50;;;;;;;26.33;53.95;101211.02;1800353;79;27462;-54
2022/08/12 09:24:32;;;;;;;12.00;5.95;;;;;;;26.47;53.49;101210.31;1807228;79;27215;-54
2022/08/12 09:26:59;;;;;;;8.50;5.30;;;;;;;26.51;53.83;101209.61;1773220;80;25830;-53
2022/08/12 09:29:28;;;;;;;13.43;5.22;;;;;;;26.68;53.69;101202.06;1772227;80;25808;-55
2022/08/12 09:31:55;;;;;;;9.63;5.97;;;;;;;26.76;52.57;101203.11;1772878;80;25763;-55
2022/08/12 09:34:22;;;;;;;7.70;5.97;;;;;;;26.80;52.48;101200.23;1811500;79;27489;-54
2022/08/12 09:36:49;;;;;;;8.83;5.40;;;;;;;26.80;52.39;101200.79;1772745;80;25893;-55
2022/08/12 09:39:17;;;;;;;7.08;5.28;;;;;;;26.83;51.99;101197.54;1811508;77;25671;-53
2022/08/12 09:45:19;;;;;;;12.65;6.80;;;;;;;26.84;52.36;101196.47;1772723;80;26590;-53
2022/08/12 09:46:59;;;;;;;9.05;5.50;;;;;;;26.89;51.43;101198.52;1788215;80;27478;-55
2022/08/12 09:49:25;;;;;;;8.98;6.10;;;;;;;26.82;51.68;101202.23;1799870;79;26505;-54
2022/08/12 09:51:53;;;;;;;11.63;6.22;;;;;;;26.77;51.58;101203.45;1800472;78;25779;-54
2022/08/12 09:54:23;;;;;;;12.53;6.05;;;;;;;26.80;51.34;101201.62;1800052;79;25813;-54
2022/08/12 09:56:52;;;;;;;12.75;6.40;;;;;;;26.74;51.70;101209.43;1799897;78;25491;-54
2022/08/12 09:59:18;;;;;;;7.55;6.20;;;;;;;26.87;51.42;101204.28;1800149;79;27523;-53
2022/08/12 10:01:46;;;;;;;12.63;6.37;;;;;;;26.92;51.67;101207.72;1778574;77;25451;-55
2022/08/12 10:04:14;;;;;;;9.78;6.45;;;;;;;26.99;51.23;101205.70;1770257;79;25779;-53
2022/08/12 10:06:43;;;;;;;6.85;5.37;;;;;;;27.02;51.20;101196.41;1770615;79;25790;-54
2022/08/12 10:09:12;;;;;;;10.25;5.92;;;;;;;27.09;51.31;101197.69;1794050;78;25853;-55
2022/08/12 10:14:25;;;;;;;14.53;6.42;;;;;;;27.12;50.72;101196.36;1805787;79;25611;-55
2022/08/12 10:16:53;;;;;;;8.35;5.25;;;;;;;27.26;49.53;101192.84;1771503;79;25696;-55
2022/08/12 10:19:21;;;;;;;9.23;6.08;;;;;;;27.27;50.46;101195.36;1808985;79;26045;-54
2022/08/12 10:21:50;;;;;;;11.28;7.53;;;;;;;27.30;50.34;101190.76;1770721;80;25450;-55
2022/08/12 10:24:20;;;;;;;10.80;7.05;;;;;;;27.34;49.67;101194.70;1811670;79;26879;-55
2022/08/12 10:29:45;;;;;;;12.98;6.95;;;;;;;27.32;49.82;101184.46;1811710;78;25759;-55
2022/08/12 10:32:19;;;;;;;15.13;6.65;;;;;;;27.42;49.09;101184.41;1811637;78;27837;-55
2022/08/12 10:34:44;;;;;;;10.53;7.20;;;;;;;27.33;49.34;101186.67;1811977;77;25666;-54
2022/08/12 10:37:12;;;;;;;7.72;5.65;;;;;;;27.32;49.45;101190.51;1811767;79;27387;-55
2022/08/12 10:39:39;;;;;;;14.83;7.10;;;;;;;27.14;49.82;101188.69;1811791;78;26112;-55
2022/08/12 10:45:06;;;;;;;12.47;6.40;;;;;;;27.07;50.61;101178.30;1811674;78;26599;-55
2022/08/12 10:47:36;;;;;;;12.50;7.10;;;;;;;27.16;50.36;101181.02;1786122;77;25623;-55
2022/08/12 10:50:08;;;;;;;10.38;6.10;;;;;;;27.19;50.09;101179.14;1741539;81;27459;-55
2022/08/12 10:52:37;;;;;;;12.55;6.33;;;;;;;27.17;50.36;101184.05;1780015;80;33199;-54
2022/08/12 10:55:05;;;;;;;7.67;6.47;;;;;;;27.22;49.90;101178.68;1781794;77;25782;-55
2022/08/12 10:57:32;;;;;;;7.65;6.20;;;;;;;27.10;50.36;101180.56;1779798;80;25846;-55
2022/08/12 10:59:59;;;;;;;14.15;6.85;;;;;;;27.18;50.35;101175.55;1742035;82;25802;-53
2022/08/12 11:02:27;;;;;;;11.57;6.10;;;;;;;27.20;50.34;101180.00;1742147;82;27472;-54
2022/08/12 11:04:58;;;;;;;9.33;6.33;;;;;;;27.18;50.43;101170.03;1742105;82;25797;-53
2022/08/12 11:07:26;;;;;;;10.63;6.42;;;;;;;27.25;49.80;101171.31;1744082;80;25759;-55
2022/08/12 11:09:54;;;;;;;9.08;6.15;;;;;;;27.30;49.91;101173.33;1772764;80;26014;-55
2022/08/12 11:12:21;;;;;;;6.42;5.72;;;;;;;27.44;50.20;101165.16;1811919;79;25403;-55
2022/08/12 11:14:49;;;;;;;11.45;6.33;;;;;;;27.68;49.55;101157.41;1772324;79;26914;-54
2022/08/12 11:17:19;;;;;;;12.03;7.12;;;;;;;27.89;48.65;101155.37;1771597;79;25739;-53
2022/08/12 11:19:52;;;;;;;10.18;6.35;;;;;;;28.04;48.45;101163.72;1771510;79;25849;-54
2022/08/12 11:22:19;;;;;;;11.15;6.97;;;;;;;28.25;48.26;101168.61;1772918;80;25733;-55
2022/08/12 11:24:46;;;;;;;12.23;7.85;;;;;;;28.56;47.24;101154.53;1811921;77;25845;-55
2022/08/12 11:27:13;;;;;;;14.73;7.30;;;;;;;28.61;47.03;101156.56;1811712;77;27457;-54
2022/08/12 11:29:40;;;;;;;12.50;6.60;;;;;;;28.67;46.79;101153.65;1811609;77;25778;-54
2022/08/12 11:32:07;;;;;;;12.95;7.08;;;;;;;28.63;46.94;101149.71;1811544;79;25745;-53
2022/08/12 11:34:34;;;;;;;15.83;7.60;;;;;;;28.60;46.81;101159.06;1811970;78;26452;-53
2022/08/12 11:37:08;;;;;;;9.10;7.37;;;;;;;28.55;46.76;101150.94;1811558;77;27234;-55
2022/08/12 11:39:31;;;;;;;16.77;6.97;;;;;;;28.37;46.58;101151.99;1810889;77;27471;-55
2022/08/12 11:42:00;;;;;;;12.50;7.15;;;;;;;28.13;47.06;101147.08;1811718;77;25707;-55
2022/08/12 11:44:27;;;;;;;9.85;6.72;;;;;;;27.91;47.93;101146.86;1811628;78;25781;-55
2022/08/12 11:46:55;;;;;;;12.70;6.72;;;;;;;27.71;48.34;101148.09;1810134;79;25809;-54
2022/08/12 11:49:26;;;;;;;12.03;6.97;;;;;;;27.60;48.61;101142.88;1809868;79;25693;-49
2022/08/12 11:51:55;;;;;;;9.15;7.05;;;;;;;27.40;48.69;101140.98;1809847;79;25982;-54
2022/08/12 11:54:22;;;;;;;11.10;6.75;;;;;;;27.30;49.15;101142.94;1809961;79;25734;-55
2022/08/12 11:56:49;;;;;;;18.73;7.10;;;;;;;27.07;49.55;101146.55;1810038;79;25461;-54
2022/08/12 11:59:16;;;;;;;11.60;7.42;;;;;;;26.92;49.73;101135.40;1810093;79;25858;-55
2022/08/12 12:01:43;;;;;;;9.33;6.47;;;;;;;26.84;50.05;101135.22;1810040;79;26147;-55
2022/08/12 12:04:10;;;;;;;14.35;7.10;;;;;;;26.78;50.31;101135.32;1840849;77;27468;-54
2022/08/12 12:06:37;;;;;;;12.82;7.08;;;;;;;26.67;50.76;101134.19;1836682;77;25632;-55
2022/08/12 12:09:04;;;;;;;15.95;7.10;;;;;;;26.55;50.93;101125.33;1814775;77;25728;-54
2022/08/12 12:11:31;;;;;;;11.43;7.78;;;;;;;26.52;51.10;101124.41;1773003;79;25793;-54
2022/08/12 12:17:02;;;;;;;13.22;6.87;;;;;;;26.37;51.70;101122.06;1747326;79;27458;-54
2022/08/12 12:19:29;;;;;;;13.80;7.15;;;;;;;26.39;51.72;101127.37;1741792;82;25705;-54
2022/08/12 12:21:56;;;;;;;14.65;6.92;;;;;;;26.28;52.08;101124.02;1742246;82;25795;-54
2022/08/12 12:24:23;;;;;;;14.80;7.28;;;;;;;26.30;52.14;101123.25;1753010;80;25957;-54
2022/08/12 12:26:50;;;;;;;12.47;6.95;;;;;;;26.34;52.33;101121.17;1753763;81;25467;-53
2022/08/12 12:29:17;;;;;;;13.78;7.70;;;;;;;26.36;52.16;101120.92;1753859;81;27484;-54
2022/08/12 12:31:44;;;;;;;10.95;6.90;;;;;;;26.38;52.29;101116.85;1753570;81;25715;-54
2022/08/12 12:34:12;;;;;;;11.12;7.80;;;;;;;26.52;52.02;101110.61;1753853;80;25649;-53
2022/08/12 12:36:39;;;;;;;10.58;7.53;;;;;;;26.67;51.62;101112.94;1753654;81;25763;-54
2022/08/12 12:39:06;;;;;;;12.35;6.87;;;;;;;26.75;51.55;101107.63;1753605;81;25764;-55
2022/08/12 12:41:33;;;;;;;15.85;6.87;;;;;;;26.84;51.26;101104.86;1762598;81;27573;-55
2022/08/12 12:44:00;;;;;;;9.75;5.75;;;;;;;27.00;51.11;101112.14;1752886;80;25745;-55
2022/08/12 12:46:27;;;;;;;12.75;7.05;;;;;;;27.11;50.78;101105.80;1751192;79;25867;-54
2022/08/12 12:48:54;;;;;;;16.05;7.72;;;;;;;27.17;50.33;101108.97;1753427;81;25837;-56
2022/08/12 12:51:21;;;;;;;8.20;6.50;;;;;;;27.15;50.00;101111.68;1753716;81;26294;-55
2022/08/12 12:53:50;;;;;;;9.03;6.70;;;;;;;27.23;50.12;101103.56;1732150;81;26260;-54
2022/08/12 12:56:21;;;;;;;11.15;6.85;;;;;;;27.43;49.63;101110.98;1746722;81;25808;-55
2022/08/12 12:58:51;;;;;;;11.15;6.72;;;;;;;27.80;48.60;101101.02;1753801;80;25657;-54
2022/08/12 13:01:24;;;;;;;9.88;5.92;;;;;;;28.01;48.33;101096.45;1754136;81;26417;-54
2022/08/12 13:03:52;;;;;;;8.05;5.90;;;;;;;28.21;47.49;101084.45;1753435;80;25708;-54
2022/08/12 13:06:24;;;;;;;10.48;6.12;;;;;;;28.06;47.99;101088.28;1753650;81;27403;-55
2022/08/12 13:08:47;;;;;;;8.05;5.95;;;;;;;28.10;47.89;101079.28;1753278;81;26122;-51
2022/08/12 13:11:14;;;;;;;12.20;5.05;;;;;;;28.11;47.93;101076.78;1748184;81;25684;-53
2022/08/12 13:13:41;;;;;;;9.90;5.97;;;;;;;28.14;47.74;101079.62;1751417;81;27943;-55
2022/08/12 13:16:09;;;;;;;9.23;5.10;;;;;;;28.07;47.63;101071.98;1752939;81;27233;-54
2022/08/12 13:18:36;;;;;;;10.55;5.97;;;;;;;27.89;48.00;101079.35;1753416;81;27472;-55
2022/08/12 13:21:10;;;;;;;13.25;6.15;;;;;;;27.88;47.97;101072.70;1749046;81;25756;-54
2022/08/12 13:23:37;;;;;;;10.60;6.12;;;;;;;27.83;47.83;101075.37;1752041;81;25708;-54
2022/08/12 13:26:06;;;;;;;7.08;5.53;;;;;;;27.64;48.39;101074.97;1751394;81;25914;-54